sensor_id;sensor_type;location;lat;lon;timestamp;P1;durP1;ratioP1;P2;durP2;ratioP2
11386;SDS011;5748;53.102;8.456;2024-03-25T00:01:52;0.87;;;0.77;;
11386;SDS011;5748;53.102;8.456;2024-03-25T00:04:18;1.00;;;0.90;;
11386;SDS011;5748;53.102;8.456;2024-03-25T00:06:47;1.37;;;1.00;;
11386;SDS011;5748;53.102;8.456;2024-03-25T00:09:13;1.53;;;0.90;;
11386;SDS011;5748;53.102;8.456;2024-03-25T00:11:41;1.27;;;0.80;;
11386;SDS011;5748;53.102;8.456;2024-03-25T00:14:08;0.83;;;0.80;;
11386;SDS011;5748;53.102;8.456;2024-03-25T00:16:35;1.10;;;1.00;;
11386;SDS011;5748;53.102;8.456;2024-03-25T00:19:02;2.47;;;0.93;;
11386;SDS011;5748;53.102;8.456;2024-03-25T00:21:29;2.97;;;1.10;;
11386;SDS011;5748;53.102;8.456;2024-03-25T00:23:55;1.10;;;1.00;;
11386;SDS011;5748;53.102;8.456;2024-03-25T00:26:22;1.30;;;1.03;;
11386;SDS011;5748;53.102;8.456;2024-03-25T00:28:48;1.00;;;0.90;;
11386;SDS011;5748;53.102;8.456;2024-03-25T00:31:16;1.30;;;1.00;;
11386;SDS011;5748;53.102;8.456;2024-03-25T00:33:42;1.60;;;0.90;;
11386;SDS011;5748;53.102;8.456;2024-03-25T00:36:09;1.20;;;1.10;;
11386;SDS011;5748;53.102;8.456;2024-03-25T00:38:35;1.53;;;1.00;;
11386;SDS011;5748;53.102;8.456;2024-03-25T00:41:02;1.43;;;1.00;;
11386;SDS011;5748;53.102;8.456;2024-03-25T00:43:29;1.57;;;0.87;;
11386;SDS011;5748;53.102;8.456;2024-03-25T00:45:56;1.13;;;0.97;;
11386;SDS011;5748;53.102;8.456;2024-03-25T00:48:24;0.93;;;0.90;;
11386;SDS011;5748;53.102;8.456;2024-03-25T00:50:51;1.00;;;0.93;;
11386;SDS011;5748;53.102;8.456;2024-03-25T00:53:17;2.10;;;0.87;;
11386;SDS011;5748;53.102;8.456;2024-03-25T00:55:44;1.00;;;0.90;;
11386;SDS011;5748;53.102;8.456;2024-03-25T00:58:10;0.80;;;0.80;;
11386;SDS011;5748;53.102;8.456;2024-03-25T01:00:37;1.30;;;0.97;;
11386;SDS011;5748;53.102;8.456;2024-03-25T01:03:03;1.03;;;0.90;;
11386;SDS011;5748;53.102;8.456;2024-03-25T01:05:32;0.83;;;0.83;;
11386;SDS011;5748;53.102;8.456;2024-03-25T01:07:58;1.30;;;0.90;;
11386;SDS011;5748;53.102;8.456;2024-03-25T01:10:25;1.23;;;1.00;;
11386;SDS011;5748;53.102;8.456;2024-03-25T01:12:51;0.80;;;0.80;;
11386;SDS011;5748;53.102;8.456;2024-03-25T01:15:18;1.13;;;1.03;;
11386;SDS011;5748;53.102;8.456;2024-03-25T01:17:44;1.10;;;1.00;;
11386;SDS011;5748;53.102;8.456;2024-03-25T01:20:11;1.13;;;0.90;;
11386;SDS011;5748;53.102;8.456;2024-03-25T01:22:39;1.00;;;0.90;;
11386;SDS011;5748;53.102;8.456;2024-03-25T01:25:07;0.97;;;0.90;;
11386;SDS011;5748;53.102;8.456;2024-03-25T01:27:33;1.20;;;1.10;;
11386;SDS011;5748;53.102;8.456;2024-03-25T01:30:00;0.83;;;0.80;;
11386;SDS011;5748;53.102;8.456;2024-03-25T01:32:28;1.17;;;0.83;;
11386;SDS011;5748;53.102;8.456;2024-03-25T01:34:55;1.20;;;1.00;;
11386;SDS011;5748;53.102;8.456;2024-03-25T01:37:21;1.23;;;1.00;;
11386;SDS011;5748;53.102;8.456;2024-03-25T01:39:50;1.07;;;0.90;;
11386;SDS011;5748;53.102;8.456;2024-03-25T01:42:16;1.03;;;0.83;;
11386;SDS011;5748;53.102;8.456;2024-03-25T01:44:43;1.10;;;1.00;;
11386;SDS011;5748;53.102;8.456;2024-03-25T01:47:09;1.20;;;1.10;;
11386;SDS011;5748;53.102;8.456;2024-03-25T01:49:36;0.87;;;0.87;;
11386;SDS011;5748;53.102;8.456;2024-03-25T01:52:03;1.27;;;0.90;;
11386;SDS011;5748;53.102;8.456;2024-03-25T01:54:31;0.87;;;0.87;;
11386;SDS011;5748;53.102;8.456;2024-03-25T01:56:58;0.83;;;0.83;;
11386;SDS011;5748;53.102;8.456;2024-03-25T01:59:26;1.07;;;0.87;;
11386;SDS011;5748;53.102;8.456;2024-03-25T02:01:53;1.10;;;0.87;;
11386;SDS011;5748;53.102;8.456;2024-03-25T02:04:21;1.63;;;0.83;;
11386;SDS011;5748;53.102;8.456;2024-03-25T02:06:48;1.03;;;0.90;;
11386;SDS011;5748;53.102;8.456;2024-03-25T02:09:16;1.10;;;0.90;;
11386;SDS011;5748;53.102;8.456;2024-03-25T02:11:43;1.17;;;1.00;;
11386;SDS011;5748;53.102;8.456;2024-03-25T02:14:11;1.40;;;1.10;;
11386;SDS011;5748;53.102;8.456;2024-03-25T02:16:38;0.97;;;0.80;;
11386;SDS011;5748;53.102;8.456;2024-03-25T02:19:05;1.10;;;0.90;;
11386;SDS011;5748;53.102;8.456;2024-03-25T02:21:31;0.80;;;0.80;;
11386;SDS011;5748;53.102;8.456;2024-03-25T02:23:59;1.53;;;0.90;;
11386;SDS011;5748;53.102;8.456;2024-03-25T02:26:27;0.80;;;0.80;;
11386;SDS011;5748;53.102;8.456;2024-03-25T02:28:54;0.87;;;0.87;;
11386;SDS011;5748;53.102;8.456;2024-03-25T02:31:21;1.33;;;0.90;;
11386;SDS011;5748;53.102;8.456;2024-03-25T02:33:48;1.50;;;0.90;;
11386;SDS011;5748;53.102;8.456;2024-03-25T02:36:14;1.80;;;1.00;;
11386;SDS011;5748;53.102;8.456;2024-03-25T02:38:41;1.30;;;0.90;;
11386;SDS011;5748;53.102;8.456;2024-03-25T02:41:07;0.90;;;0.90;;
11386;SDS011;5748;53.102;8.456;2024-03-25T02:43:36;1.00;;;1.00;;
11386;SDS011;5748;53.102;8.456;2024-03-25T02:46:02;0.97;;;0.87;;
11386;SDS011;5748;53.102;8.456;2024-03-25T02:48:29;0.87;;;0.87;;
11386;SDS011;5748;53.102;8.456;2024-03-25T02:50:55;0.83;;;0.83;;
11386;SDS011;5748;53.102;8.456;2024-03-25T02:53:22;1.10;;;0.80;;
11386;SDS011;5748;53.102;8.456;2024-03-25T02:55:48;1.23;;;0.80;;
11386;SDS011;5748;53.102;8.456;2024-03-25T02:58:15;1.30;;;0.87;;
11386;SDS011;5748;53.102;8.456;2024-03-25T03:00:42;0.77;;;0.77;;
11386;SDS011;5748;53.102;8.456;2024-03-25T03:03:09;0.70;;;0.70;;
11386;SDS011;5748;53.102;8.456;2024-03-25T03:05:35;1.00;;;0.90;;
11386;SDS011;5748;53.102;8.456;2024-03-25T03:08:03;1.20;;;0.90;;
11386;SDS011;5748;53.102;8.456;2024-03-25T03:10:29;1.70;;;1.20;;
11386;SDS011;5748;53.102;8.456;2024-03-25T03:12:56;1.90;;;0.93;;
11386;SDS011;5748;53.102;8.456;2024-03-25T03:15:22;1.10;;;0.80;;
11386;SDS011;5748;53.102;8.456;2024-03-25T03:17:51;1.00;;;0.90;;
11386;SDS011;5748;53.102;8.456;2024-03-25T03:20:17;1.23;;;0.83;;
11386;SDS011;5748;53.102;8.456;2024-03-25T03:22:44;2.00;;;1.00;;
11386;SDS011;5748;53.102;8.456;2024-03-25T03:25:10;1.47;;;1.00;;
11386;SDS011;5748;53.102;8.456;2024-03-25T03:27:38;1.10;;;1.00;;
11386;SDS011;5748;53.102;8.456;2024-03-25T03:30:04;1.10;;;0.80;;
11386;SDS011;5748;53.102;8.456;2024-03-25T03:32:32;1.40;;;1.30;;
11386;SDS011;5748;53.102;8.456;2024-03-25T03:34:59;1.80;;;1.10;;
11386;SDS011;5748;53.102;8.456;2024-03-25T03:37:26;1.27;;;1.00;;
11386;SDS011;5748;53.102;8.456;2024-03-25T03:39:52;1.30;;;1.00;;
11386;SDS011;5748;53.102;8.456;2024-03-25T03:42:19;1.47;;;1.00;;
11386;SDS011;5748;53.102;8.456;2024-03-25T03:44:45;1.40;;;1.00;;
11386;SDS011;5748;53.102;8.456;2024-03-25T03:47:12;2.07;;;1.20;;
11386;SDS011;5748;53.102;8.456;2024-03-25T03:49:38;0.90;;;0.90;;
11386;SDS011;5748;53.102;8.456;2024-03-25T03:52:06;1.17;;;1.07;;
11386;SDS011;5748;53.102;8.456;2024-03-25T03:54:33;1.27;;;1.10;;
11386;SDS011;5748;53.102;8.456;2024-03-25T03:57:00;1.60;;;1.00;;
11386;SDS011;5748;53.102;8.456;2024-03-25T03:59:26;1.23;;;1.00;;
11386;SDS011;5748;53.102;8.456;2024-03-25T04:01:53;1.50;;;1.20;;
11386;SDS011;5748;53.102;8.456;2024-03-25T04:04:19;1.23;;;1.00;;
11386;SDS011;5748;53.102;8.456;2024-03-25T04:06:46;1.03;;;0.93;;
11386;SDS011;5748;53.102;8.456;2024-03-25T04:09:13;1.53;;;1.10;;
11386;SDS011;5748;53.102;8.456;2024-03-25T04:11:40;2.00;;;1.27;;
11386;SDS011;5748;53.102;8.456;2024-03-25T04:14:06;1.13;;;1.00;;
11386;SDS011;5748;53.102;8.456;2024-03-25T04:16:33;1.90;;;1.10;;
11386;SDS011;5748;53.102;8.456;2024-03-25T04:18:59;1.73;;;1.10;;
11386;SDS011;5748;53.102;8.456;2024-03-25T04:21:26;1.53;;;1.03;;
11386;SDS011;5748;53.102;8.456;2024-03-25T04:23:52;1.57;;;1.10;;
11386;SDS011;5748;53.102;8.456;2024-03-25T04:26:20;1.80;;;1.10;;
11386;SDS011;5748;53.102;8.456;2024-03-25T04:28:47;1.20;;;1.00;;
11386;SDS011;5748;53.102;8.456;2024-03-25T04:31:14;1.97;;;1.10;;
11386;SDS011;5748;53.102;8.456;2024-03-25T04:33:40;1.37;;;1.00;;
11386;SDS011;5748;53.102;8.456;2024-03-25T04:36:08;1.90;;;1.03;;
11386;SDS011;5748;53.102;8.456;2024-03-25T04:38:34;1.27;;;0.90;;
11386;SDS011;5748;53.102;8.456;2024-03-25T04:41:00;2.40;;;1.30;;
11386;SDS011;5748;53.102;8.456;2024-03-25T04:43:27;1.53;;;0.93;;
11386;SDS011;5748;53.102;8.456;2024-03-25T04:45:53;1.70;;;1.10;;
11386;SDS011;5748;53.102;8.456;2024-03-25T04:48:19;1.40;;;1.00;;
11386;SDS011;5748;53.102;8.456;2024-03-25T04:50:45;1.53;;;1.07;;
11386;SDS011;5748;53.102;8.456;2024-03-25T04:53:11;1.10;;;0.90;;
11386;SDS011;5748;53.102;8.456;2024-03-25T04:55:37;1.00;;;0.90;;
11386;SDS011;5748;53.102;8.456;2024-03-25T04:58:04;1.53;;;1.00;;
11386;SDS011;5748;53.102;8.456;2024-03-25T05:00:31;0.80;;;0.80;;
11386;SDS011;5748;53.102;8.456;2024-03-25T05:02:57;2.13;;;1.33;;
11386;SDS011;5748;53.102;8.456;2024-03-25T05:05:23;1.87;;;1.30;;
11386;SDS011;5748;53.102;8.456;2024-03-25T05:07:49;2.13;;;1.23;;
11386;SDS011;5748;53.102;8.456;2024-03-25T05:10:15;1.63;;;1.20;;
11386;SDS011;5748;53.102;8.456;2024-03-25T05:12:41;1.50;;;1.00;;
11386;SDS011;5748;53.102;8.456;2024-03-25T05:15:08;1.63;;;1.10;;
11386;SDS011;5748;53.102;8.456;2024-03-25T05:17:35;1.60;;;1.00;;
11386;SDS011;5748;53.102;8.456;2024-03-25T05:20:01;1.80;;;1.07;;
11386;SDS011;5748;53.102;8.456;2024-03-25T05:22:29;3.03;;;1.20;;
11386;SDS011;5748;53.102;8.456;2024-03-25T05:24:55;2.23;;;1.20;;
11386;SDS011;5748;53.102;8.456;2024-03-25T05:27:21;1.83;;;1.20;;
11386;SDS011;5748;53.102;8.456;2024-03-25T05:29:48;2.13;;;1.07;;
11386;SDS011;5748;53.102;8.456;2024-03-25T05:32:14;2.27;;;1.20;;
11386;SDS011;5748;53.102;8.456;2024-03-25T05:34:42;1.67;;;1.20;;
11386;SDS011;5748;53.102;8.456;2024-03-25T05:37:09;1.90;;;1.10;;
11386;SDS011;5748;53.102;8.456;2024-03-25T05:39:35;1.83;;;1.00;;
11386;SDS011;5748;53.102;8.456;2024-03-25T05:42:01;1.40;;;1.10;;
11386;SDS011;5748;53.102;8.456;2024-03-25T05:44:28;2.00;;;1.10;;
11386;SDS011;5748;53.102;8.456;2024-03-25T05:46:54;1.70;;;1.10;;
11386;SDS011;5748;53.102;8.456;2024-03-25T05:49:20;1.70;;;1.00;;
11386;SDS011;5748;53.102;8.456;2024-03-25T05:51:47;1.37;;;1.00;;
11386;SDS011;5748;53.102;8.456;2024-03-25T05:54:14;1.83;;;1.20;;
11386;SDS011;5748;53.102;8.456;2024-03-25T05:56:40;1.60;;;1.10;;
11386;SDS011;5748;53.102;8.456;2024-03-25T05:59:06;2.30;;;1.10;;
11386;SDS011;5748;53.102;8.456;2024-03-25T06:01:32;2.20;;;1.27;;
11386;SDS011;5748;53.102;8.456;2024-03-25T06:03:58;1.33;;;1.10;;
11386;SDS011;5748;53.102;8.456;2024-03-25T06:06:24;1.53;;;1.07;;
11386;SDS011;5748;53.102;8.456;2024-03-25T06:08:52;1.80;;;1.00;;
11386;SDS011;5748;53.102;8.456;2024-03-25T06:11:18;1.83;;;1.20;;
11386;SDS011;5748;53.102;8.456;2024-03-25T06:13:45;2.03;;;1.03;;
11386;SDS011;5748;53.102;8.456;2024-03-25T06:16:11;1.93;;;1.20;;
11386;SDS011;5748;53.102;8.456;2024-03-25T06:18:37;1.37;;;1.00;;
11386;SDS011;5748;53.102;8.456;2024-03-25T06:21:04;2.43;;;1.13;;
11386;SDS011;5748;53.102;8.456;2024-03-25T06:23:30;1.93;;;1.10;;
11386;SDS011;5748;53.102;8.456;2024-03-25T06:25:57;2.87;;;1.20;;
11386;SDS011;5748;53.102;8.456;2024-03-25T06:28:23;1.43;;;1.10;;
11386;SDS011;5748;53.102;8.456;2024-03-25T06:30:50;2.37;;;1.20;;
11386;SDS011;5748;53.102;8.456;2024-03-25T06:33:35;1.67;;;1.10;;
11386;SDS011;5748;53.102;8.456;2024-03-25T06:36:20;0.87;;;0.87;;
11386;SDS011;5748;53.102;8.456;2024-03-25T06:38:47;1.33;;;1.20;;
11386;SDS011;5748;53.102;8.456;2024-03-25T06:41:15;1.03;;;0.93;;
11386;SDS011;5748;53.102;8.456;2024-03-25T06:43:42;1.30;;;1.00;;
11386;SDS011;5748;53.102;8.456;2024-03-25T06:46:08;1.00;;;0.83;;
11386;SDS011;5748;53.102;8.456;2024-03-25T06:48:34;2.30;;;1.20;;
11386;SDS011;5748;53.102;8.456;2024-03-25T06:51:00;2.27;;;1.30;;
11386;SDS011;5748;53.102;8.456;2024-03-25T06:53:27;2.10;;;1.30;;
11386;SDS011;5748;53.102;8.456;2024-03-25T06:55:53;1.70;;;1.10;;
11386;SDS011;5748;53.102;8.456;2024-03-25T06:58:22;1.47;;;0.97;;
11386;SDS011;5748;53.102;8.456;2024-03-25T07:00:49;2.03;;;1.10;;
11386;SDS011;5748;53.102;8.456;2024-03-25T07:03:15;2.03;;;1.30;;
11386;SDS011;5748;53.102;8.456;2024-03-25T07:05:44;1.97;;;0.90;;
11386;SDS011;5748;53.102;8.456;2024-03-25T07:08:11;2.53;;;1.30;;
11386;SDS011;5748;53.102;8.456;2024-03-25T07:10:37;1.80;;;1.20;;
11386;SDS011;5748;53.102;8.456;2024-03-25T07:13:04;2.23;;;0.90;;
11386;SDS011;5748;53.102;8.456;2024-03-25T07:15:31;1.93;;;1.00;;
11386;SDS011;5748;53.102;8.456;2024-03-25T07:17:58;1.37;;;1.10;;
11386;SDS011;5748;53.102;8.456;2024-03-25T07:20:24;1.50;;;1.13;;
11386;SDS011;5748;53.102;8.456;2024-03-25T07:22:51;1.73;;;1.00;;
11386;SDS011;5748;53.102;8.456;2024-03-25T07:25:17;1.50;;;1.17;;
11386;SDS011;5748;53.102;8.456;2024-03-25T07:27:43;3.07;;;1.13;;
11386;SDS011;5748;53.102;8.456;2024-03-25T07:30:09;1.70;;;1.10;;
11386;SDS011;5748;53.102;8.456;2024-03-25T07:32:37;1.57;;;0.90;;
11386;SDS011;5748;53.102;8.456;2024-03-25T07:35:04;2.20;;;1.20;;
11386;SDS011;5748;53.102;8.456;2024-03-25T07:37:30;2.40;;;1.20;;
11386;SDS011;5748;53.102;8.456;2024-03-25T07:39:56;1.77;;;1.20;;
11386;SDS011;5748;53.102;8.456;2024-03-25T07:42:22;1.90;;;1.00;;
11386;SDS011;5748;53.102;8.456;2024-03-25T07:44:49;2.67;;;1.10;;
11386;SDS011;5748;53.102;8.456;2024-03-25T07:47:15;1.13;;;0.97;;
11386;SDS011;5748;53.102;8.456;2024-03-25T07:49:42;2.03;;;0.90;;
11386;SDS011;5748;53.102;8.456;2024-03-25T07:52:08;1.30;;;1.10;;
11386;SDS011;5748;53.102;8.456;2024-03-25T07:54:35;1.63;;;0.83;;
11386;SDS011;5748;53.102;8.456;2024-03-25T07:57:02;1.57;;;1.00;;
11386;SDS011;5748;53.102;8.456;2024-03-25T07:59:29;1.10;;;0.90;;
11386;SDS011;5748;53.102;8.456;2024-03-25T08:01:55;2.13;;;1.30;;
11386;SDS011;5748;53.102;8.456;2024-03-25T08:04:21;1.03;;;0.97;;
11386;SDS011;5748;53.102;8.456;2024-03-25T08:06:49;1.37;;;0.77;;
11386;SDS011;5748;53.102;8.456;2024-03-25T08:09:15;1.73;;;1.00;;
11386;SDS011;5748;53.102;8.456;2024-03-25T08:11:41;1.77;;;0.90;;
11386;SDS011;5748;53.102;8.456;2024-03-25T08:14:08;2.13;;;1.00;;
11386;SDS011;5748;53.102;8.456;2024-03-25T08:16:34;1.00;;;0.80;;
11386;SDS011;5748;53.102;8.456;2024-03-25T08:19:00;1.17;;;0.70;;
11386;SDS011;5748;53.102;8.456;2024-03-25T08:21:26;1.03;;;0.80;;
11386;SDS011;5748;53.102;8.456;2024-03-25T08:23:54;1.90;;;0.90;;
11386;SDS011;5748;53.102;8.456;2024-03-25T08:26:20;1.97;;;1.00;;
11386;SDS011;5748;53.102;8.456;2024-03-25T08:28:46;2.10;;;1.20;;
11386;SDS011;5748;53.102;8.456;2024-03-25T08:31:13;1.50;;;0.90;;
11386;SDS011;5748;53.102;8.456;2024-03-25T08:33:39;1.40;;;0.90;;
11386;SDS011;5748;53.102;8.456;2024-03-25T08:36:05;1.80;;;0.83;;
11386;SDS011;5748;53.102;8.456;2024-03-25T08:38:31;1.87;;;1.20;;
11386;SDS011;5748;53.102;8.456;2024-03-25T08:40:59;1.10;;;0.80;;
11386;SDS011;5748;53.102;8.456;2024-03-25T08:43:25;1.70;;;1.07;;
11386;SDS011;5748;53.102;8.456;2024-03-25T08:45:51;1.23;;;0.80;;
11386;SDS011;5748;53.102;8.456;2024-03-25T08:48:17;1.47;;;0.90;;
11386;SDS011;5748;53.102;8.456;2024-03-25T08:50:43;1.50;;;0.90;;
11386;SDS011;5748;53.102;8.456;2024-03-25T08:53:09;0.68;;;0.60;;
11386;SDS011;5748;53.102;8.456;2024-03-25T08:55:36;1.52;;;0.75;;
11386;SDS011;5748;53.102;8.456;2024-03-25T08:58:03;1.20;;;0.73;;
11386;SDS011;5748;53.102;8.456;2024-03-25T09:00:29;1.00;;;0.77;;
11386;SDS011;5748;53.102;8.456;2024-03-25T09:02:55;1.35;;;0.80;;
11386;SDS011;5748;53.102;8.456;2024-03-25T09:05:21;2.08;;;0.90;;
11386;SDS011;5748;53.102;8.456;2024-03-25T09:07:49;1.50;;;0.63;;
11386;SDS011;5748;53.102;8.456;2024-03-25T09:10:15;1.33;;;0.90;;
11386;SDS011;5748;53.102;8.456;2024-03-25T09:12:59;1.23;;;0.67;;
11386;SDS011;5748;53.102;8.456;2024-03-25T09:15:27;1.10;;;0.70;;
11386;SDS011;5748;53.102;8.456;2024-03-25T09:17:53;2.07;;;0.60;;
11386;SDS011;5748;53.102;8.456;2024-03-25T09:20:19;1.83;;;1.10;;
11386;SDS011;5748;53.102;8.456;2024-03-25T09:22:45;1.20;;;0.70;;
11386;SDS011;5748;53.102;8.456;2024-03-25T09:25:11;1.30;;;0.90;;
11386;SDS011;5748;53.102;8.456;2024-03-25T09:27:38;1.27;;;0.70;;
11386;SDS011;5748;53.102;8.456;2024-03-25T09:30:05;0.87;;;0.67;;
11386;SDS011;5748;53.102;8.456;2024-03-25T09:32:34;2.37;;;0.90;;
11386;SDS011;5748;53.102;8.456;2024-03-25T09:35:00;0.77;;;0.60;;
11386;SDS011;5748;53.102;8.456;2024-03-25T09:37:26;1.17;;;0.77;;
11386;SDS011;5748;53.102;8.456;2024-03-25T09:39:53;1.13;;;0.80;;
11386;SDS011;5748;53.102;8.456;2024-03-25T09:42:21;0.80;;;0.80;;
11386;SDS011;5748;53.102;8.456;2024-03-25T09:44:51;0.77;;;0.73;;
11386;SDS011;5748;53.102;8.456;2024-03-25T09:47:19;1.13;;;0.70;;
11386;SDS011;5748;53.102;8.456;2024-03-25T09:49:47;1.77;;;1.00;;
11386;SDS011;5748;53.102;8.456;2024-03-25T09:52:14;1.70;;;0.90;;
11386;SDS011;5748;53.102;8.456;2024-03-25T09:54:40;1.87;;;0.87;;
11386;SDS011;5748;53.102;8.456;2024-03-25T09:57:06;0.93;;;0.60;;
11386;SDS011;5748;53.102;8.456;2024-03-25T09:59:33;1.60;;;0.80;;
11386;SDS011;5748;53.102;8.456;2024-03-25T10:02:00;0.80;;;0.70;;
11386;SDS011;5748;53.102;8.456;2024-03-25T10:04:27;1.47;;;0.80;;
11386;SDS011;5748;53.102;8.456;2024-03-25T10:06:55;1.20;;;0.77;;
11386;SDS011;5748;53.102;8.456;2024-03-25T10:09:21;1.67;;;0.90;;
11386;SDS011;5748;53.102;8.456;2024-03-25T10:11:48;1.23;;;0.70;;
11386;SDS011;5748;53.102;8.456;2024-03-25T10:14:14;0.77;;;0.60;;
11386;SDS011;5748;53.102;8.456;2024-03-25T10:16:41;1.07;;;0.60;;
11386;SDS011;5748;53.102;8.456;2024-03-25T10:19:07;1.60;;;0.70;;
11386;SDS011;5748;53.102;8.456;2024-03-25T10:21:34;0.60;;;0.60;;
11386;SDS011;5748;53.102;8.456;2024-03-25T10:24:02;1.03;;;0.70;;
11386;SDS011;5748;53.102;8.456;2024-03-25T10:26:31;1.43;;;0.80;;
11386;SDS011;5748;53.102;8.456;2024-03-25T10:28:58;0.87;;;0.70;;
11386;SDS011;5748;53.102;8.456;2024-03-25T10:31:26;1.10;;;0.77;;
11386;SDS011;5748;53.102;8.456;2024-03-25T10:33:52;1.27;;;0.70;;
11386;SDS011;5748;53.102;8.456;2024-03-25T10:36:19;1.23;;;0.87;;
11386;SDS011;5748;53.102;8.456;2024-03-25T10:38:46;1.13;;;0.70;;
11386;SDS011;5748;53.102;8.456;2024-03-25T10:41:18;1.17;;;0.60;;
11386;SDS011;5748;53.102;8.456;2024-03-25T10:43:45;1.43;;;0.80;;
11386;SDS011;5748;53.102;8.456;2024-03-25T10:46:14;0.73;;;0.70;;
11386;SDS011;5748;53.102;8.456;2024-03-25T10:48:47;1.10;;;0.73;;
11386;SDS011;5748;53.102;8.456;2024-03-25T10:51:26;0.80;;;0.60;;
11386;SDS011;5748;53.102;8.456;2024-03-25T10:53:55;1.50;;;0.60;;
11386;SDS011;5748;53.102;8.456;2024-03-25T10:56:23;0.87;;;0.70;;
11386;SDS011;5748;53.102;8.456;2024-03-25T10:58:49;1.20;;;0.77;;
11386;SDS011;5748;53.102;8.456;2024-03-25T11:01:16;1.33;;;0.80;;
11386;SDS011;5748;53.102;8.456;2024-03-25T11:03:44;1.00;;;0.70;;
11386;SDS011;5748;53.102;8.456;2024-03-25T11:06:11;1.13;;;0.60;;
11386;SDS011;5748;53.102;8.456;2024-03-25T11:08:37;0.90;;;0.60;;
11386;SDS011;5748;53.102;8.456;2024-03-25T11:11:04;1.60;;;0.80;;
11386;SDS011;5748;53.102;8.456;2024-03-25T11:13:32;1.65;;;0.80;;
11386;SDS011;5748;53.102;8.456;2024-03-25T11:15:59;1.20;;;0.65;;
11386;SDS011;5748;53.102;8.456;2024-03-25T11:18:25;0.55;;;0.52;;
11386;SDS011;5748;53.102;8.456;2024-03-25T11:21:01;0.80;;;0.70;;
11386;SDS011;5748;53.102;8.456;2024-03-25T11:23:35;0.75;;;0.47;;
11386;SDS011;5748;53.102;8.456;2024-03-25T11:26:16;0.70;;;0.50;;
11386;SDS011;5748;53.102;8.456;2024-03-25T11:28:45;0.88;;;0.70;;
11386;SDS011;5748;53.102;8.456;2024-03-25T11:31:11;1.13;;;0.60;;
11386;SDS011;5748;53.102;8.456;2024-03-25T11:33:37;0.95;;;0.68;;
11386;SDS011;5748;53.102;8.456;2024-03-25T11:36:05;1.23;;;0.70;;
11386;SDS011;5748;53.102;8.456;2024-03-25T11:38:32;1.90;;;0.80;;
11386;SDS011;5748;53.102;8.456;2024-03-25T11:40:59;1.02;;;0.60;;
11386;SDS011;5748;53.102;8.456;2024-03-25T11:43:26;1.55;;;0.70;;
11386;SDS011;5748;53.102;8.456;2024-03-25T11:45:54;1.00;;;0.60;;
11386;SDS011;5748;53.102;8.456;2024-03-25T11:48:20;1.00;;;0.50;;
11386;SDS011;5748;53.102;8.456;2024-03-25T11:50:46;0.57;;;0.50;;
11386;SDS011;5748;53.102;8.456;2024-03-25T11:53:13;0.85;;;0.43;;
11386;SDS011;5748;53.102;8.456;2024-03-25T11:55:40;0.50;;;0.40;;
11386;SDS011;5748;53.102;8.456;2024-03-25T11:58:06;1.42;;;0.68;;
11386;SDS011;5748;53.102;8.456;2024-03-25T12:00:33;1.52;;;0.68;;
11386;SDS011;5748;53.102;8.456;2024-03-25T12:03:00;1.13;;;0.60;;
11386;SDS011;5748;53.102;8.456;2024-03-25T12:05:27;2.85;;;0.50;;
11386;SDS011;5748;53.102;8.456;2024-03-25T12:07:53;1.38;;;0.95;;
11386;SDS011;5748;53.102;8.456;2024-03-25T12:10:19;0.93;;;0.55;;
11386;SDS011;5748;53.102;8.456;2024-03-25T12:13:04;0.55;;;0.40;;
11386;SDS011;5748;53.102;8.456;2024-03-25T12:15:30;1.00;;;0.50;;
11386;SDS011;5748;53.102;8.456;2024-03-25T12:17:56;1.27;;;0.68;;
11386;SDS011;5748;53.102;8.456;2024-03-25T12:20:23;0.68;;;0.50;;
11386;SDS011;5748;53.102;8.456;2024-03-25T12:22:50;0.75;;;0.50;;
11386;SDS011;5748;53.102;8.456;2024-03-25T12:25:18;0.60;;;0.40;;
11386;SDS011;5748;53.102;8.456;2024-03-25T12:27:46;0.63;;;0.40;;
11386;SDS011;5748;53.102;8.456;2024-03-25T12:30:13;0.95;;;0.50;;
11386;SDS011;5748;53.102;8.456;2024-03-25T12:32:39;0.55;;;0.55;;
11386;SDS011;5748;53.102;8.456;2024-03-25T12:35:08;0.90;;;0.60;;
11386;SDS011;5748;53.102;8.456;2024-03-25T12:37:37;0.45;;;0.40;;
11386;SDS011;5748;53.102;8.456;2024-03-25T12:40:05;0.50;;;0.50;;
11386;SDS011;5748;53.102;8.456;2024-03-25T12:42:33;0.80;;;0.60;;
11386;SDS011;5748;53.102;8.456;2024-03-25T12:44:59;1.17;;;0.60;;
11386;SDS011;5748;53.102;8.456;2024-03-25T12:47:25;1.43;;;0.80;;
11386;SDS011;5748;53.102;8.456;2024-03-25T12:49:53;1.63;;;0.90;;
11386;SDS011;5748;53.102;8.456;2024-03-25T12:52:19;0.93;;;0.60;;
11386;SDS011;5748;53.102;8.456;2024-03-25T12:54:46;1.60;;;0.97;;
11386;SDS011;5748;53.102;8.456;2024-03-25T12:57:13;1.13;;;0.70;;
11386;SDS011;5748;53.102;8.456;2024-03-25T12:59:39;0.87;;;0.60;;
11386;SDS011;5748;53.102;8.456;2024-03-25T13:02:05;0.90;;;0.60;;
11386;SDS011;5748;53.102;8.456;2024-03-25T13:04:36;1.50;;;0.60;;
11386;SDS011;5748;53.102;8.456;2024-03-25T13:07:02;1.20;;;0.52;;
11386;SDS011;5748;53.102;8.456;2024-03-25T13:09:28;0.50;;;0.40;;
11386;SDS011;5748;53.102;8.456;2024-03-25T13:11:56;0.50;;;0.47;;
11386;SDS011;5748;53.102;8.456;2024-03-25T13:14:22;0.63;;;0.45;;
11386;SDS011;5748;53.102;8.456;2024-03-25T13:16:49;0.45;;;0.40;;
11386;SDS011;5748;53.102;8.456;2024-03-25T13:19:15;1.00;;;0.50;;
11386;SDS011;5748;53.102;8.456;2024-03-25T13:21:41;0.40;;;0.40;;
11386;SDS011;5748;53.102;8.456;2024-03-25T13:24:08;1.05;;;0.63;;
11386;SDS011;5748;53.102;8.456;2024-03-25T13:26:34;0.60;;;0.60;;
11386;SDS011;5748;53.102;8.456;2024-03-25T13:29:01;0.80;;;0.50;;
11386;SDS011;5748;53.102;8.456;2024-03-25T13:31:28;0.82;;;0.68;;
11386;SDS011;5748;53.102;8.456;2024-03-25T13:33:54;1.52;;;0.80;;
11386;SDS011;5748;53.102;8.456;2024-03-25T13:36:20;0.85;;;0.50;;
11386;SDS011;5748;53.102;8.456;2024-03-25T13:38:46;1.02;;;0.60;;
11386;SDS011;5748;53.102;8.456;2024-03-25T13:41:12;1.60;;;0.90;;
11386;SDS011;5748;53.102;8.456;2024-03-25T13:43:41;0.50;;;0.50;;
11386;SDS011;5748;53.102;8.456;2024-03-25T13:46:09;0.85;;;0.70;;
11386;SDS011;5748;53.102;8.456;2024-03-25T13:48:36;0.60;;;0.60;;
11386;SDS011;5748;53.102;8.456;2024-03-25T13:51:03;0.70;;;0.70;;
11386;SDS011;5748;53.102;8.456;2024-03-25T13:53:29;1.05;;;0.60;;
11386;SDS011;5748;53.102;8.456;2024-03-25T13:55:55;0.88;;;0.60;;
11386;SDS011;5748;53.102;8.456;2024-03-25T13:58:22;1.00;;;0.60;;
11386;SDS011;5748;53.102;8.456;2024-03-25T14:00:48;0.80;;;0.63;;
11386;SDS011;5748;53.102;8.456;2024-03-25T14:03:15;1.00;;;0.70;;
11386;SDS011;5748;53.102;8.456;2024-03-25T14:05:41;1.90;;;0.77;;
11386;SDS011;5748;53.102;8.456;2024-03-25T14:08:09;0.50;;;0.50;;
11386;SDS011;5748;53.102;8.456;2024-03-25T14:10:35;0.67;;;0.67;;
11386;SDS011;5748;53.102;8.456;2024-03-25T14:13:02;1.13;;;0.63;;
11386;SDS011;5748;53.102;8.456;2024-03-25T14:15:28;0.77;;;0.53;;
11386;SDS011;5748;53.102;8.456;2024-03-25T14:17:55;0.60;;;0.50;;
11386;SDS011;5748;53.102;8.456;2024-03-25T14:20:22;0.73;;;0.60;;
11386;SDS011;5748;53.102;8.456;2024-03-25T14:22:48;0.90;;;0.60;;
11386;SDS011;5748;53.102;8.456;2024-03-25T14:25:14;0.60;;;0.60;;
11386;SDS011;5748;53.102;8.456;2024-03-25T14:27:40;0.80;;;0.50;;
11386;SDS011;5748;53.102;8.456;2024-03-25T14:30:07;1.90;;;0.77;;
11386;SDS011;5748;53.102;8.456;2024-03-25T14:32:35;1.00;;;0.70;;
11386;SDS011;5748;53.102;8.456;2024-03-25T14:35:02;0.60;;;0.50;;
11386;SDS011;5748;53.102;8.456;2024-03-25T14:37:30;0.93;;;0.70;;
11386;SDS011;5748;53.102;8.456;2024-03-25T14:39:56;0.80;;;0.80;;
11386;SDS011;5748;53.102;8.456;2024-03-25T14:42:22;0.80;;;0.80;;
11386;SDS011;5748;53.102;8.456;2024-03-25T14:44:48;0.77;;;0.77;;
11386;SDS011;5748;53.102;8.456;2024-03-25T14:47:14;1.23;;;0.90;;
11386;SDS011;5748;53.102;8.456;2024-03-25T14:49:41;0.60;;;0.50;;
11386;SDS011;5748;53.102;8.456;2024-03-25T14:52:07;0.60;;;0.50;;
11386;SDS011;5748;53.102;8.456;2024-03-25T14:54:34;0.60;;;0.60;;
11386;SDS011;5748;53.102;8.456;2024-03-25T14:57:03;0.50;;;0.50;;
11386;SDS011;5748;53.102;8.456;2024-03-25T14:59:29;1.57;;;0.53;;